createdAt,value
2017-12-19T00:00:24.508Z,1.7
2017-12-19T00:01:26.999Z,1.6
2017-12-19T00:02:29.492Z,1.6
2017-12-19T00:03:32.273Z,1.6
2017-12-19T00:04:34.773Z,1.6
2017-12-19T00:05:37.266Z,1.6
2017-12-19T00:06:39.737Z,1.6
2017-12-19T00:07:42.244Z,1.6
2017-12-19T00:08:44.734Z,1.6
2017-12-19T00:09:47.231Z,1.6
2017-12-19T00:10:50.047Z,1.6
2017-12-19T00:11:52.540Z,1.6
2017-12-19T00:12:55.028Z,1.6
2017-12-19T00:13:57.523Z,1.6
2017-12-19T00:15:00.018Z,1.6
2017-12-19T00:16:02.502Z,1.6
2017-12-19T00:17:04.994Z,1.6
2017-12-19T00:18:07.471Z,1.6
2017-12-19T00:19:10.552Z,1.6
2017-12-19T00:20:13.048Z,1.6
2017-12-19T00:21:15.531Z,1.6
2017-12-19T00:22:18.016Z,1.6
2017-12-19T00:23:20.510Z,1.6
2017-12-19T00:24:22.992Z,1.5
2017-12-19T00:25:25.484Z,1.6
2017-12-19T00:26:27.971Z,1.6
2017-12-19T00:27:30.472Z,1.6
2017-12-19T00:28:33.244Z,1.5
2017-12-19T00:29:35.742Z,1.5
2017-12-19T00:30:38.224Z,1.5
2017-12-19T00:31:40.730Z,1.5
2017-12-19T00:32:43.225Z,1.5
2017-12-19T00:33:45.716Z,1.5
2017-12-19T00:34:48.207Z,1.5
2017-12-19T00:35:50.706Z,1.5
2017-12-19T00:36:53.488Z,1.5
2017-12-19T00:37:55.973Z,1.5
2017-12-19T00:38:58.469Z,1.5
2017-12-19T00:40:00.960Z,1.4
2017-12-19T00:41:03.439Z,1.4
2017-12-19T00:42:05.961Z,1.4
2017-12-19T00:43:08.444Z,1.4
2017-12-19T00:44:11.223Z,1.4
2017-12-19T00:45:13.712Z,1.4
2017-12-19T00:46:16.201Z,1.4
2017-12-19T00:47:18.692Z,1.4
2017-12-19T00:48:21.193Z,1.4
2017-12-19T00:49:23.966Z,1.4
2017-12-19T00:50:26.453Z,1.4
2017-12-19T00:51:29.249Z,1.4
2017-12-19T00:52:31.733Z,1.4
2017-12-19T00:53:34.225Z,1.4
2017-12-19T00:54:36.701Z,1.4
2017-12-19T00:55:39.187Z,1.4
2017-12-19T00:56:41.696Z,1.4
2017-12-19T00:57:44.180Z,1.4
2017-12-19T00:58:46.671Z,1.4
2017-12-19T00:59:49.169Z,1.4
2017-12-19T01:00:51.649Z,1.4
2017-12-19T01:01:54.146Z,1.4
2017-12-19T01:02:56.641Z,1.4
2017-12-19T01:03:59.120Z,1.4
2017-12-19T01:05:01.617Z,1.4
2017-12-19T01:06:04.098Z,1.4
2017-12-19T01:07:06.581Z,1.4
2017-12-19T01:08:09.089Z,1.4
2017-12-19T01:09:11.861Z,1.4
2017-12-19T01:10:14.345Z,1.6
2017-12-19T01:11:16.826Z,1.6
2017-12-19T01:12:19.601Z,1.6
2017-12-19T01:13:22.094Z,1.5
2017-12-19T01:14:24.592Z,1.4
2017-12-19T01:15:27.058Z,1.4
2017-12-19T01:16:29.555Z,1.4
2017-12-19T01:17:32.055Z,1.4
2017-12-19T01:18:34.559Z,1.4
2017-12-19T01:19:37.047Z,1.4
2017-12-19T01:20:39.535Z,1.4
2017-12-19T01:21:42.317Z,1.4
2017-12-19T01:22:44.790Z,1.4
2017-12-19T01:23:47.574Z,1.4
2017-12-19T01:24:50.065Z,1.4
2017-12-19T01:25:52.555Z,1.4
2017-12-19T01:26:55.049Z,1.4
2017-12-19T01:27:57.552Z,1.4
2017-12-19T01:29:00.030Z,1.4
2017-12-19T01:30:02.536Z,1.4
2017-12-19T01:31:05.338Z,1.4
2017-12-19T01:32:07.820Z,1.4
2017-12-19T01:33:10.308Z,1.4
2017-12-19T01:34:12.803Z,1.4
2017-12-19T01:35:15.279Z,1.4
2017-12-19T01:36:17.770Z,1.4
2017-12-19T01:37:20.256Z,1.4
2017-12-19T01:38:22.743Z,1.4
2017-12-19T01:39:25.540Z,1.4
2017-12-19T01:40:28.311Z,1.4
2017-12-19T01:41:30.796Z,1.4
2017-12-19T01:42:33.595Z,1.4
2017-12-19T01:43:36.089Z,1.5
2017-12-19T01:44:38.575Z,1.5
2017-12-19T01:45:41.071Z,1.4
2017-12-19T01:46:43.548Z,1.5
2017-12-19T01:47:46.330Z,1.5
2017-12-19T01:48:48.823Z,1.5
2017-12-19T01:49:51.317Z,1.5
2017-12-19T01:50:53.802Z,1.5
2017-12-19T01:51:56.295Z,1.5
2017-12-19T01:52:58.778Z,1.4
2017-12-19T01:54:01.269Z,1.4
2017-12-19T01:55:03.756Z,1.5
2017-12-19T01:56:06.549Z,1.5
2017-12-19T01:57:09.038Z,1.5
2017-12-19T01:58:11.530Z,1.5
2017-12-19T01:59:14.315Z,1.4
2017-12-19T02:00:16.798Z,1.5
2017-12-19T02:01:19.288Z,1.5
2017-12-19T02:02:21.779Z,1.5
2017-12-19T02:03:24.258Z,1.5
2017-12-19T02:04:27.042Z,1.5
2017-12-19T02:05:29.542Z,1.5
2017-12-19T02:06:32.022Z,1.5
2017-12-19T02:07:34.801Z,1.5
2017-12-19T02:08:37.287Z,1.5
2017-12-19T02:09:39.779Z,1.5
2017-12-19T02:10:42.278Z,1.5
2017-12-19T02:11:44.772Z,1.5
2017-12-19T02:12:47.246Z,1.5
2017-12-19T02:13:49.750Z,1.6
2017-12-19T02:14:52.529Z,1.6
2017-12-19T02:15:55.027Z,1.6
2017-12-19T02:16:57.518Z,1.6
2017-12-19T02:18:00.013Z,1.6
2017-12-19T02:19:02.499Z,1.6
2017-12-19T02:20:05.001Z,1.5
2017-12-19T02:21:07.489Z,1.5
2017-12-19T02:22:09.977Z,1.5
2017-12-19T02:23:12.762Z,1.5
2017-12-19T02:24:15.257Z,1.5
2017-12-19T02:25:18.034Z,1.5
2017-12-19T02:26:20.518Z,1.5
2017-12-19T02:27:23.029Z,1.5
2017-12-19T02:28:25.509Z,1.5
2017-12-19T02:29:28.286Z,1.6
2017-12-19T02:30:30.782Z,1.6
2017-12-19T02:31:33.259Z,1.5
2017-12-19T02:32:35.747Z,1.5
2017-12-19T02:33:38.527Z,1.6
2017-12-19T02:34:41.018Z,1.5
2017-12-19T02:35:43.509Z,1.5
2017-12-19T02:36:46.007Z,1.6
2017-12-19T02:37:48.490Z,1.5
2017-12-19T02:38:50.993Z,1.5
2017-12-19T02:39:53.778Z,1.5
2017-12-19T02:40:56.274Z,1.5
2017-12-19T02:41:58.756Z,1.5
2017-12-19T02:43:01.248Z,1.5
2017-12-19T02:44:03.735Z,1.5
2017-12-19T02:45:06.226Z,1.5
2017-12-19T02:46:08.700Z,1.5
2017-12-19T02:47:11.194Z,1.5
2017-12-19T02:48:13.697Z,1.6
2017-12-19T02:49:16.186Z,1.6
2017-12-19T02:50:18.967Z,1.6
2017-12-19T02:51:21.453Z,1.6
2017-12-19T02:52:23.954Z,1.6
2017-12-19T02:53:26.725Z,1.6
2017-12-19T02:54:29.208Z,1.6
2017-12-19T02:55:31.721Z,1.6
2017-12-19T02:56:34.202Z,1.6
2017-12-19T02:57:36.683Z,1.6
2017-12-19T02:58:39.175Z,1.6
2017-12-19T02:59:41.663Z,1.5
2017-12-19T03:00:44.156Z,1.6
2017-12-19T03:01:46.954Z,1.6
2017-12-19T03:02:49.432Z,1.6
2017-12-19T03:03:51.923Z,1.6
2017-12-19T03:04:54.425Z,1.6
2017-12-19T03:05:56.907Z,1.5
2017-12-19T03:06:59.697Z,1.6
2017-12-19T03:08:02.478Z,1.6
2017-12-19T03:09:05.252Z,1.6
2017-12-19T03:10:08.048Z,1.6
2017-12-19T03:11:10.540Z,1.6
2017-12-19T03:12:13.018Z,1.6
2017-12-19T03:13:15.507Z,1.6
2017-12-19T03:14:18.283Z,1.6
2017-12-19T03:15:20.767Z,1.6
2017-12-19T03:16:23.262Z,1.6
2017-12-19T03:17:25.734Z,1.6
2017-12-19T03:18:28.227Z,1.6
2017-12-19T03:19:30.734Z,1.6
2017-12-19T03:20:33.222Z,1.6
2017-12-19T03:21:35.717Z,1.6
2017-12-19T03:22:38.205Z,1.6
2017-12-19T03:23:40.689Z,1.6
2017-12-19T03:24:43.192Z,1.7
2017-12-19T03:25:45.677Z,1.7
2017-12-19T03:26:48.177Z,1.7
2017-12-19T03:27:50.664Z,1.7
2017-12-19T03:28:53.157Z,1.7
2017-12-19T03:29:55.653Z,1.8
2017-12-19T03:30:58.155Z,1.8
2017-12-19T03:32:00.649Z,1.8
2017-12-19T03:33:03.430Z,1.8
2017-12-19T03:34:05.915Z,1.8
2017-12-19T03:35:08.692Z,1.8
2017-12-19T03:36:11.188Z,1.8
2017-12-19T03:37:13.680Z,1.8
2017-12-19T03:38:16.177Z,1.8
2017-12-19T03:39:18.669Z,1.8
2017-12-19T03:40:21.155Z,1.8
2017-12-19T03:41:23.958Z,1.8
2017-12-19T03:42:26.434Z,1.8
2017-12-19T03:43:28.931Z,1.9
2017-12-19T03:44:31.738Z,1.8
2017-12-19T03:45:34.218Z,1.8
2017-12-19T03:46:36.710Z,1.8
2017-12-19T03:47:39.195Z,1.8
2017-12-19T03:48:41.684Z,1.8
2017-12-19T03:49:44.179Z,1.8
2017-12-19T03:50:46.960Z,1.8
2017-12-19T03:51:49.455Z,1.8
2017-12-19T03:52:51.927Z,1.8
2017-12-19T03:53:54.420Z,1.8
2017-12-19T03:54:56.919Z,1.8
2017-12-19T03:55:59.405Z,1.8
2017-12-19T03:57:01.899Z,1.8
2017-12-19T03:58:04.383Z,1.8
2017-12-19T03:59:06.875Z,1.8
2017-12-19T04:00:09.372Z,1.8
2017-12-19T04:01:11.859Z,1.8
2017-12-19T04:02:14.623Z,1.8
2017-12-19T04:03:17.121Z,1.8
2017-12-19T04:04:19.609Z,1.8
2017-12-19T04:05:22.104Z,1.8
2017-12-19T04:06:24.893Z,1.8
2017-12-19T04:07:27.374Z,1.8
2017-12-19T04:08:30.167Z,1.8
2017-12-19T04:09:32.668Z,1.8
2017-12-19T04:10:35.154Z,1.8
2017-12-19T04:11:37.642Z,1.9
2017-12-19T04:12:40.143Z,1.9
2017-12-19T04:13:42.634Z,1.9
2017-12-19T04:14:45.134Z,1.9
2017-12-19T04:15:47.910Z,1.9
2017-12-19T04:16:50.377Z,1.9
2017-12-19T04:17:53.479Z,1.9
2017-12-19T04:18:55.967Z,2
2017-12-19T04:19:58.753Z,2
2017-12-19T04:21:01.528Z,2
2017-12-19T04:22:04.014Z,2
2017-12-19T04:23:06.507Z,1.9
2017-12-19T04:24:08.999Z,1.9
2017-12-19T04:25:11.487Z,1.9
2017-12-19T04:26:13.992Z,1.9
2017-12-19T04:27:16.464Z,1.9
2017-12-19T04:28:18.964Z,1.9
2017-12-19T04:29:21.448Z,1.9
2017-12-19T04:30:23.932Z,1.9
2017-12-19T04:31:26.716Z,2
2017-12-19T04:32:29.204Z,2
2017-12-19T04:33:31.695Z,2
2017-12-19T04:34:34.488Z,2
2017-12-19T04:35:36.972Z,2
2017-12-19T04:36:39.763Z,2
2017-12-19T04:37:42.259Z,2.1
2017-12-19T04:38:44.742Z,2
2017-12-19T04:39:47.229Z,2
2017-12-19T04:40:49.732Z,2
2017-12-19T04:41:52.209Z,2.1
2017-12-19T04:42:55.058Z,2.1
2017-12-19T04:43:57.544Z,2.1
2017-12-19T04:45:00.036Z,2.1
2017-12-19T04:46:02.525Z,2.1
2017-12-19T04:47:05.016Z,2.1
2017-12-19T04:48:07.504Z,2.1
2017-12-19T04:49:10.000Z,2.1
2017-12-19T04:50:12.496Z,2.2
2017-12-19T04:51:15.266Z,2.2
2017-12-19T04:52:17.774Z,2.2
2017-12-19T04:53:20.265Z,2.3
2017-12-19T04:54:22.756Z,2.2
2017-12-19T04:55:25.537Z,2.3
2017-12-19T04:56:28.324Z,2.3
2017-12-19T04:57:30.810Z,2.3
2017-12-19T04:58:33.300Z,2.3
2017-12-19T04:59:35.771Z,2.3
2017-12-19T05:00:38.263Z,2.3
2017-12-19T05:01:40.769Z,2.3
2017-12-19T05:02:43.261Z,2.3
2017-12-19T05:03:45.749Z,2.3
2017-12-19T05:04:48.244Z,2.3
2017-12-19T05:05:50.735Z,2.3
2017-12-19T05:06:53.230Z,2.2
2017-12-19T05:07:55.717Z,2.2
2017-12-19T05:08:58.500Z,2.3
2017-12-19T05:10:01.282Z,2.3
2017-12-19T05:11:03.773Z,2.3
2017-12-19T05:12:06.562Z,2.3
2017-12-19T05:13:09.057Z,2.3
2017-12-19T05:14:11.540Z,2.3
2017-12-19T05:15:14.032Z,2.3
2017-12-19T05:16:16.531Z,2.3
2017-12-19T05:17:19.019Z,2.3
2017-12-19T05:18:22.091Z,2.3
2017-12-19T05:19:24.590Z,2.3
2017-12-19T05:20:27.084Z,2.3
2017-12-19T05:21:29.576Z,2.3
2017-12-19T05:22:32.352Z,2.4
2017-12-19T05:23:34.855Z,2.3
2017-12-19T05:24:37.343Z,2.4
2017-12-19T05:25:39.820Z,2.4
2017-12-19T05:26:42.317Z,2.3
2017-12-19T05:27:44.804Z,2.3
2017-12-19T05:28:47.291Z,2.4
2017-12-19T05:29:49.784Z,2.4
2017-12-19T05:30:52.277Z,2.4
2017-12-19T05:31:54.766Z,2.4
2017-12-19T05:32:57.282Z,2.4
2017-12-19T05:33:59.757Z,2.4
2017-12-19T05:35:02.252Z,2.4
2017-12-19T05:36:04.742Z,2.4
2017-12-19T05:37:07.235Z,2.4
2017-12-19T05:38:09.740Z,2.4
2017-12-19T05:39:12.234Z,2.4
2017-12-19T05:40:14.708Z,2.4
2017-12-19T05:41:17.216Z,2.4
2017-12-19T05:42:19.986Z,2.4
2017-12-19T05:43:22.486Z,2.4
2017-12-19T05:44:24.986Z,2.4
2017-12-19T05:45:27.505Z,2.4
2017-12-19T05:46:30.603Z,2.3
2017-12-19T05:47:33.105Z,2.3
2017-12-19T05:48:35.594Z,2.3
2017-12-19T05:49:38.954Z,2.4
2017-12-19T05:50:41.444Z,2.4
2017-12-19T05:51:43.955Z,2.5
2017-12-19T05:52:46.444Z,2.4
2017-12-19T05:53:48.934Z,2.4
2017-12-19T05:54:51.429Z,2.4
2017-12-19T05:55:53.915Z,2.4
2017-12-19T05:56:56.715Z,2.5
2017-12-19T05:57:59.518Z,2.5
2017-12-19T05:59:01.992Z,2.5
2017-12-19T06:00:04.498Z,2.5
2017-12-19T06:01:06.988Z,2.4
2017-12-19T06:02:09.480Z,2.4
2017-12-19T06:03:11.978Z,2.4
2017-12-19T06:04:14.451Z,2.4
2017-12-19T06:05:17.238Z,2.4
2017-12-19T06:06:19.743Z,2.4
2017-12-19T06:07:22.234Z,2.4
2017-12-19T06:08:24.730Z,2.4
2017-12-19T06:09:27.224Z,2.4
2017-12-19T06:10:29.704Z,2.4
2017-12-19T06:11:32.203Z,2.4
2017-12-19T06:12:34.689Z,2.4
2017-12-19T06:13:37.171Z,2.4
2017-12-19T06:14:39.669Z,2.4
2017-12-19T06:15:42.155Z,2.4
2017-12-19T06:16:44.653Z,2.5
2017-12-19T06:17:47.150Z,2.4
2017-12-19T06:18:49.934Z,2.4
2017-12-19T06:19:52.723Z,2.4
2017-12-19T06:20:55.498Z,2.4
2017-12-19T06:21:58.274Z,2.4
2017-12-19T06:23:00.777Z,2.5
2017-12-19T06:24:03.559Z,2.5
2017-12-19T06:25:06.067Z,2.5
2017-12-19T06:26:09.471Z,2.5
2017-12-19T06:27:11.995Z,2.5
2017-12-19T06:28:14.792Z,2.5
2017-12-19T06:29:17.291Z,2.5
2017-12-19T06:30:20.354Z,2.5
2017-12-19T06:31:22.927Z,2.6
2017-12-19T06:32:25.454Z,2.6
2017-12-19T06:33:27.945Z,2.6
2017-12-19T06:34:30.751Z,2.6
2017-12-19T06:35:33.254Z,2.6
2017-12-19T06:36:35.734Z,2.6
2017-12-19T06:37:38.242Z,2.6
2017-12-19T06:38:40.722Z,2.6
2017-12-19T06:39:43.206Z,2.6
2017-12-19T06:40:45.703Z,2.6
2017-12-19T06:41:48.188Z,2.6
2017-12-19T06:42:50.689Z,2.6
2017-12-19T06:43:53.178Z,2.6
2017-12-19T06:44:55.948Z,2.7
2017-12-19T06:45:58.454Z,2.7
2017-12-19T06:47:00.942Z,2.7
2017-12-19T06:48:03.434Z,2.7
2017-12-19T06:49:06.218Z,2.8
2017-12-19T06:50:08.710Z,2.8
2017-12-19T06:51:11.204Z,2.8
2017-12-19T06:52:13.697Z,2.8
2017-12-19T06:53:16.303Z,2.7
2017-12-19T06:54:18.752Z,2.7
2017-12-19T06:55:21.253Z,2.8
2017-12-19T06:56:24.043Z,2.8
2017-12-19T06:57:26.533Z,2.9
2017-12-19T06:58:29.030Z,2.8
2017-12-19T06:59:31.522Z,2.8
2017-12-19T07:00:34.012Z,2.8
2017-12-19T07:01:37.424Z,2.8
2017-12-19T07:02:40.217Z,2.7
2017-12-19T07:03:42.708Z,2.7
2017-12-19T07:04:45.214Z,2.7
2017-12-19T07:05:48.059Z,2.8
2017-12-19T07:06:50.556Z,2.7
2017-12-19T07:07:53.109Z,2.8
2017-12-19T07:08:55.759Z,2.8
2017-12-19T07:09:58.540Z,2.8
2017-12-19T07:11:01.031Z,2.8
2017-12-19T07:12:03.518Z,2.8
2017-12-19T07:13:06.022Z,2.8
2017-12-19T07:14:08.512Z,2.8
2017-12-19T07:15:10.992Z,2.8
2017-12-19T07:16:14.069Z,2.8
2017-12-19T07:17:16.573Z,2.8
2017-12-19T07:18:19.053Z,2.8
2017-12-19T07:19:21.545Z,2.8
2017-12-19T07:20:24.043Z,2.8
2017-12-19T07:21:26.538Z,2.8
2017-12-19T07:22:29.031Z,2.8
2017-12-19T07:23:31.815Z,2.8
2017-12-19T07:24:34.299Z,2.9
2017-12-19T07:25:36.799Z,2.9
2017-12-19T07:26:39.299Z,3
2017-12-19T07:27:41.797Z,3
2017-12-19T07:28:44.279Z,3
2017-12-19T07:29:46.779Z,3
2017-12-19T07:30:49.271Z,3
2017-12-19T07:31:51.758Z,3
2017-12-19T07:32:54.252Z,3
2017-12-19T07:33:56.746Z,3
2017-12-19T07:34:59.245Z,3
2017-12-19T07:36:01.743Z,3
2017-12-19T07:37:04.230Z,3
2017-12-19T07:38:06.730Z,3
2017-12-19T07:39:09.237Z,3
2017-12-19T07:40:11.747Z,3
2017-12-19T07:41:14.248Z,3
2017-12-19T07:42:16.745Z,3
2017-12-19T07:43:19.237Z,3
2017-12-19T07:44:21.730Z,3
2017-12-19T07:45:24.224Z,3
2017-12-19T07:46:26.696Z,3
2017-12-19T07:47:29.200Z,3.1
2017-12-19T07:48:31.694Z,3.1
2017-12-19T07:49:34.190Z,3.1
2017-12-19T07:50:36.688Z,3.1
2017-12-19T07:51:39.178Z,3
2017-12-19T07:52:41.681Z,3.1
2017-12-19T07:53:44.156Z,3
2017-12-19T07:54:46.668Z,3
2017-12-19T07:55:49.152Z,3
2017-12-19T07:56:51.638Z,3
2017-12-19T07:57:54.141Z,3.1
2017-12-19T07:58:56.631Z,3.1
2017-12-19T07:59:59.414Z,3.1
2017-12-19T08:01:01.923Z,3.1
2017-12-19T08:02:04.445Z,3.1
2017-12-19T08:03:06.958Z,3.1
2017-12-19T08:04:09.504Z,3.1
2017-12-19T08:05:11.993Z,3.1
2017-12-19T08:06:14.496Z,3.1
2017-12-19T08:07:16.999Z,3.1
2017-12-19T08:08:19.528Z,3.1
2017-12-19T08:09:22.735Z,3.1
2017-12-19T08:10:25.744Z,3.1
2017-12-19T08:11:28.546Z,3.1
2017-12-19T08:12:31.061Z,3.2
2017-12-19T08:13:33.543Z,3.2
2017-12-19T08:14:36.035Z,3.2
2017-12-19T08:15:38.514Z,3.2
2017-12-19T08:16:41.017Z,3.2
2017-12-19T08:17:43.783Z,3.2
2017-12-19T08:18:46.568Z,3.2
2017-12-19T08:19:49.078Z,3.2
2017-12-19T08:20:51.565Z,3.2
2017-12-19T08:21:54.355Z,3.2
2017-12-19T08:22:57.136Z,3.2
2017-12-19T08:23:59.627Z,3.3
2017-12-19T08:25:02.128Z,3.3
2017-12-19T08:26:04.933Z,3.3
2017-12-19T08:27:07.409Z,3.3
2017-12-19T08:28:09.910Z,3.3
2017-12-19T08:29:12.406Z,3.3
2017-12-19T08:30:14.902Z,3.3
2017-12-19T08:31:17.681Z,3.3
2017-12-19T08:32:20.474Z,3.3
2017-12-19T08:33:22.968Z,3.4
2017-12-19T08:34:25.466Z,3.4
2017-12-19T08:35:28.257Z,3.4
2017-12-19T08:36:30.737Z,3.4
2017-12-19T08:37:33.235Z,3.4
2017-12-19T08:38:35.731Z,3.4
2017-12-19T08:39:38.221Z,3.4
2017-12-19T08:40:40.709Z,3.4
2017-12-19T08:41:43.215Z,3.4
2017-12-19T08:42:45.703Z,3.5
2017-12-19T08:43:48.210Z,3.5
2017-12-19T08:44:50.698Z,3.5
2017-12-19T08:45:53.198Z,3.5
2017-12-19T08:46:55.689Z,3.5
2017-12-19T08:47:58.185Z,3.6
2017-12-19T08:49:00.674Z,3.6
2017-12-19T08:50:03.173Z,3.6
2017-12-19T08:51:05.651Z,3.6
2017-12-19T08:52:08.141Z,3.6
2017-12-19T08:53:10.643Z,3.6
2017-12-19T08:54:13.129Z,3.6
2017-12-19T08:55:15.615Z,3.6
2017-12-19T08:56:18.111Z,3.7
2017-12-19T08:57:20.599Z,3.7
2017-12-19T08:58:23.103Z,3.7
2017-12-19T08:59:25.599Z,3.7
2017-12-19T09:00:28.071Z,3.8
2017-12-19T09:01:30.574Z,3.8
2017-12-19T09:02:33.046Z,3.8
2017-12-19T09:03:35.550Z,4
2017-12-19T09:04:38.046Z,3.9
2017-12-19T09:05:40.547Z,4
2017-12-19T09:06:43.039Z,3.9
2017-12-19T09:07:45.531Z,3.9
2017-12-19T09:08:48.024Z,3.9
2017-12-19T09:09:50.531Z,3.9
2017-12-19T09:10:53.013Z,3.9
2017-12-19T09:11:55.499Z,3.9
2017-12-19T09:12:57.996Z,4
2017-12-19T09:14:00.493Z,4
2017-12-19T09:15:03.296Z,4
2017-12-19T09:16:05.797Z,4
2017-12-19T09:17:08.580Z,4
2017-12-19T09:18:11.085Z,4
2017-12-19T09:19:13.581Z,4.1
2017-12-19T09:20:16.062Z,4.1
2017-12-19T09:21:18.561Z,4.2
2017-12-19T09:22:21.048Z,4.2
2017-12-19T09:23:23.542Z,4.1
2017-12-19T09:24:26.036Z,4.2
2017-12-19T09:25:28.818Z,4.2
2017-12-19T09:26:31.323Z,4.2
2017-12-19T09:27:33.814Z,4.3
2017-12-19T09:28:36.307Z,4.2
2017-12-19T09:29:38.799Z,4.2
2017-12-19T09:30:41.308Z,4.3
2017-12-19T09:31:43.780Z,4.3
2017-12-19T09:32:46.276Z,4.3
2017-12-19T09:33:48.763Z,4.3
2017-12-19T09:34:51.543Z,4.3
2017-12-19T09:35:54.355Z,4.3
2017-12-19T09:36:56.843Z,4.4
2017-12-19T09:37:59.336Z,4.4
2017-12-19T09:39:01.832Z,4.4
2017-12-19T09:40:04.326Z,4.4
2017-12-19T09:41:07.115Z,4.4
2017-12-19T09:42:09.612Z,4.4
2017-12-19T09:43:12.093Z,4.5
2017-12-19T09:44:14.584Z,4.5
2017-12-19T09:45:17.097Z,4.5
2017-12-19T09:46:19.586Z,4.5
2017-12-19T09:47:22.074Z,4.5
2017-12-19T09:48:24.578Z,4.6
2017-12-19T09:49:27.072Z,4.6
2017-12-19T09:50:29.558Z,4.6
2017-12-19T09:51:32.067Z,4.6
2017-12-19T09:52:34.569Z,4.6
2017-12-19T09:53:37.064Z,4.6
2017-12-19T09:54:39.557Z,4.6
2017-12-19T09:55:42.051Z,4.6
2017-12-19T09:56:44.542Z,4.6
2017-12-19T09:57:47.054Z,4.7
2017-12-19T09:58:49.828Z,4.8
2017-12-19T09:59:52.321Z,4.8
2017-12-19T10:00:54.827Z,4.8
2017-12-19T10:01:57.598Z,4.7
2017-12-19T10:03:00.388Z,4.8
2017-12-19T10:04:02.879Z,4.9
2017-12-19T10:05:05.667Z,4.8
2017-12-19T10:06:08.147Z,4.8
2017-12-19T10:07:10.651Z,4.8
2017-12-19T10:08:13.454Z,4.8
2017-12-19T10:09:16.255Z,4.8
2017-12-19T10:10:19.036Z,4.8
2017-12-19T10:11:21.521Z,4.8
2017-12-19T10:12:24.017Z,4.8
2017-12-19T10:13:26.520Z,4.8
2017-12-19T10:14:29.013Z,4.7
2017-12-19T10:15:31.498Z,4.7
2017-12-19T10:16:34.000Z,4.7
2017-12-19T10:17:36.488Z,4.7
2017-12-19T10:18:38.981Z,4.7
2017-12-19T10:19:41.762Z,4.7
2017-12-19T10:20:44.260Z,4.7
2017-12-19T10:21:46.755Z,4.8
2017-12-19T10:22:49.558Z,4.7
2017-12-19T10:23:52.612Z,4.7
2017-12-19T10:24:55.109Z,4.8
2017-12-19T10:25:57.608Z,4.7
2017-12-19T10:27:00.096Z,4.8
2017-12-19T10:28:02.596Z,4.7
2017-12-19T10:29:05.083Z,4.7
2017-12-19T10:30:07.574Z,4.7
2017-12-19T10:31:10.352Z,4.8
2017-12-19T10:32:12.851Z,4.7
2017-12-19T10:33:15.329Z,4.7
2017-12-19T10:34:17.841Z,4.8
2017-12-19T10:35:20.619Z,4.8
2017-12-19T10:36:23.120Z,4.8
2017-12-19T10:37:25.617Z,4.8
2017-12-19T10:38:28.110Z,4.8
2017-12-19T10:39:30.601Z,4.8
2017-12-19T10:40:33.398Z,4.8
2017-12-19T10:41:35.883Z,4.9
2017-12-19T10:42:38.671Z,4.9
2017-12-19T10:43:41.159Z,4.9
2017-12-19T10:44:43.658Z,4.9
2017-12-19T10:45:46.158Z,4.9
2017-12-19T10:46:48.939Z,4.9
2017-12-19T10:47:51.438Z,4.9
2017-12-19T10:48:53.938Z,5
2017-12-19T10:49:56.421Z,5
2017-12-19T10:50:58.920Z,5
2017-12-19T10:52:01.418Z,5
2017-12-19T10:53:04.206Z,5
2017-12-19T10:54:06.704Z,4.9
2017-12-19T10:55:09.208Z,4.9
2017-12-19T10:56:11.986Z,5
2017-12-19T10:57:14.784Z,5
2017-12-19T10:58:17.275Z,5
2017-12-19T10:59:19.766Z,5
2017-12-19T11:00:22.261Z,5.1
2017-12-19T11:01:24.765Z,5.1
2017-12-19T11:02:27.555Z,5.1
2017-12-19T11:03:30.336Z,5.1
2017-12-19T11:04:33.114Z,5.1
2017-12-19T11:05:35.622Z,5.1
2017-12-19T11:06:38.119Z,5.2
2017-12-19T11:07:40.611Z,5.2
2017-12-19T11:08:43.408Z,5.1
2017-12-19T11:09:46.198Z,5.1
2017-12-19T11:10:48.984Z,5.1
2017-12-19T11:11:51.481Z,5
2017-12-19T11:12:54.257Z,5.1
2017-12-19T11:13:56.750Z,5.1
2017-12-19T11:14:59.240Z,5.2
2017-12-19T11:16:01.755Z,5.1
2017-12-19T11:17:04.252Z,5.2
2017-12-19T11:18:06.731Z,5.2
2017-12-19T11:19:09.230Z,5.2
2017-12-19T11:20:11.723Z,5.2
2017-12-19T11:21:14.213Z,5.2
2017-12-19T11:22:16.710Z,5.2
2017-12-19T11:23:19.186Z,5.3
2017-12-19T11:24:21.686Z,5.3
2017-12-19T11:25:24.194Z,5.3
2017-12-19T11:26:26.688Z,5.4
2017-12-19T11:27:29.184Z,5.3
2017-12-19T11:28:31.985Z,5.4
2017-12-19T11:29:34.766Z,5.3
2017-12-19T11:30:37.285Z,5.4
2017-12-19T11:31:40.063Z,5.5
2017-12-19T11:32:42.553Z,5.4
2017-12-19T11:33:45.055Z,5.4
2017-12-19T11:34:47.546Z,5.5
2017-12-19T11:35:50.330Z,5.6
2017-12-19T11:36:52.837Z,5.6
2017-12-19T11:37:55.321Z,5.5
2017-12-19T11:38:57.817Z,5.5
2017-12-19T11:40:00.324Z,5.6
2017-12-19T11:41:02.810Z,5.6
2017-12-19T11:42:05.302Z,5.6
2017-12-19T11:43:07.852Z,5.6
2017-12-19T11:44:10.295Z,5.7
2017-12-19T11:45:12.793Z,5.7
2017-12-19T11:46:15.581Z,5.7
2017-12-19T11:47:18.360Z,5.7
2017-12-19T11:48:20.862Z,5.7
2017-12-19T11:49:23.356Z,5.7
2017-12-19T11:50:26.434Z,5.7
2017-12-19T11:51:28.933Z,5.7
2017-12-19T11:52:31.422Z,5.7
2017-12-19T11:53:33.921Z,5.6
2017-12-19T11:54:36.411Z,5.6
2017-12-19T11:55:38.905Z,5.6
2017-12-19T11:56:41.422Z,5.6
2017-12-19T11:57:44.490Z,5.6
2017-12-19T11:58:46.975Z,5.6
2017-12-19T11:59:49.484Z,5.6
2017-12-19T12:00:51.977Z,5.5
2017-12-19T12:01:54.780Z,5.5
2017-12-19T12:02:57.575Z,5.5
2017-12-19T12:04:00.049Z,5.5
2017-12-19T12:05:02.550Z,5.6
2017-12-19T12:06:05.343Z,5.6
2017-12-19T12:07:07.828Z,5.6
2017-12-19T12:08:10.322Z,5.6
2017-12-19T12:09:12.810Z,5.5
2017-12-19T12:10:15.302Z,5.6
2017-12-19T12:11:17.807Z,5.6
2017-12-19T12:12:20.302Z,5.5
2017-12-19T12:13:22.785Z,5.6
2017-12-19T12:14:25.292Z,5.6
2017-12-19T12:15:27.789Z,5.6
2017-12-19T12:16:30.273Z,5.6
2017-12-19T12:17:32.763Z,5.7
2017-12-19T12:18:35.266Z,5.7
2017-12-19T12:19:37.760Z,5.7
2017-12-19T12:20:40.248Z,5.8
2017-12-19T12:21:43.040Z,5.8
2017-12-19T12:22:45.533Z,5.8
2017-12-19T12:23:48.034Z,5.8
2017-12-19T12:24:50.537Z,5.8
2017-12-19T12:25:53.042Z,5.7
2017-12-19T12:26:55.533Z,5.7
2017-12-19T12:27:58.031Z,5.7
2017-12-19T12:29:00.522Z,5.7
2017-12-19T12:30:03.080Z,5.7
2017-12-19T12:31:05.833Z,5.7
2017-12-19T12:32:08.326Z,5.7
2017-12-19T12:33:10.814Z,5.7
2017-12-19T12:34:13.313Z,5.7
2017-12-19T12:35:15.796Z,5.7
2017-12-19T12:36:18.295Z,5.7
2017-12-19T12:37:20.791Z,5.7
2017-12-19T12:38:23.278Z,5.8
2017-12-19T12:39:25.785Z,5.7
2017-12-19T12:40:28.283Z,5.7
2017-12-19T12:41:30.773Z,5.7
2017-12-19T12:42:33.275Z,5.8
2017-12-19T12:43:36.066Z,5.8
2017-12-19T12:44:38.872Z,5.7
2017-12-19T12:45:41.424Z,5.7
2017-12-19T12:46:43.849Z,5.7
2017-12-19T12:47:46.355Z,5.7
2017-12-19T12:48:48.849Z,5.7
2017-12-19T12:49:51.349Z,5.7
2017-12-19T12:50:54.134Z,5.7
2017-12-19T12:51:56.628Z,5.7
2017-12-19T12:52:59.123Z,5.7
2017-12-19T12:54:01.627Z,5.7
2017-12-19T12:55:04.112Z,5.7
2017-12-19T12:56:06.612Z,5.7
2017-12-19T12:57:09.097Z,5.6
2017-12-19T12:58:11.601Z,5.7
2017-12-19T12:59:14.104Z,5.7
2017-12-19T13:00:16.607Z,5.6
2017-12-19T13:01:19.387Z,5.6
2017-12-19T13:02:21.891Z,5.7
2017-12-19T13:03:24.678Z,5.6
2017-12-19T13:04:27.169Z,5.7
2017-12-19T13:05:29.656Z,5.6
2017-12-19T13:06:32.156Z,5.6
2017-12-19T13:07:34.649Z,5.6
2017-12-19T13:08:37.156Z,5.6
2017-12-19T13:09:39.644Z,5.6
2017-12-19T13:10:42.140Z,5.6
2017-12-19T13:11:44.638Z,5.7
2017-12-19T13:12:47.137Z,5.7
2017-12-19T13:13:49.640Z,5.7
2017-12-19T13:14:52.125Z,5.8
2017-12-19T13:15:54.615Z,5.8
2017-12-19T13:16:57.113Z,5.8
2017-12-19T13:17:59.621Z,5.8
2017-12-19T13:19:02.116Z,5.7
2017-12-19T13:20:04.617Z,5.7
2017-12-19T13:21:07.104Z,5.7
2017-12-19T13:22:09.613Z,5.7
2017-12-19T13:23:12.106Z,5.7
2017-12-19T13:24:14.600Z,5.7
2017-12-19T13:25:17.093Z,5.7
2017-12-19T13:26:19.588Z,5.7
2017-12-19T13:27:22.091Z,5.7
2017-12-19T13:28:24.591Z,5.7
2017-12-19T13:29:27.077Z,5.7
2017-12-19T13:30:29.572Z,5.7
2017-12-19T13:31:32.077Z,5.8
2017-12-19T13:32:34.858Z,5.7
2017-12-19T13:33:37.356Z,5.8
2017-12-19T13:34:39.850Z,5.7
2017-12-19T13:35:42.341Z,5.7
2017-12-19T13:36:44.852Z,5.7
2017-12-19T13:37:47.346Z,5.7
2017-12-19T13:38:49.841Z,5.7
2017-12-19T13:39:52.620Z,5.7
2017-12-19T13:40:55.115Z,5.7
2017-12-19T13:41:57.617Z,5.7
2017-12-19T13:43:00.109Z,5.8
2017-12-19T13:44:02.612Z,5.8
2017-12-19T13:45:05.114Z,5.8
2017-12-19T13:46:07.906Z,5.8
2017-12-19T13:47:10.408Z,5.8
2017-12-19T13:48:12.909Z,5.8
2017-12-19T13:49:15.405Z,5.8
2017-12-19T13:50:17.898Z,5.8
2017-12-19T13:51:20.398Z,5.8
2017-12-19T13:52:22.887Z,5.8
2017-12-19T13:53:25.685Z,5.8
2017-12-19T13:54:28.182Z,5.8
2017-12-19T13:55:30.662Z,5.8
2017-12-19T13:56:33.164Z,5.8
2017-12-19T13:57:35.948Z,5.8
2017-12-19T13:58:38.445Z,5.8
2017-12-19T13:59:40.946Z,5.8
2017-12-19T14:00:43.433Z,5.8
2017-12-19T14:01:45.922Z,5.8
2017-12-19T14:02:48.424Z,5.8
2017-12-19T14:03:51.220Z,5.8
2017-12-19T14:04:53.711Z,5.8
2017-12-19T14:05:56.213Z,5.8
2017-12-19T14:06:58.704Z,5.9
2017-12-19T14:08:01.219Z,5.9
2017-12-19T14:09:03.720Z,5.9
2017-12-19T14:10:06.201Z,5.8
2017-12-19T14:11:08.702Z,5.8
2017-12-19T14:12:11.198Z,5.8
2017-12-19T14:13:13.702Z,5.8
2017-12-19T14:14:16.201Z,5.8
2017-12-19T14:15:18.694Z,5.8
2017-12-19T14:16:21.199Z,5.8
2017-12-19T14:17:23.681Z,5.8
2017-12-19T14:18:26.172Z,5.8
2017-12-19T14:19:28.687Z,5.8
2017-12-19T14:20:31.460Z,5.8
2017-12-19T14:21:33.955Z,5.8
2017-12-19T14:22:36.447Z,5.8
2017-12-19T14:23:38.942Z,5.8
2017-12-19T14:24:41.442Z,5.8